createdAt,value
2023-09-24T00:01:07.353Z,15.70
2023-09-24T00:03:35.208Z,13.67
2023-09-24T00:06:10.766Z,13.43
2023-09-24T00:08:38.789Z,12.93
2023-09-24T00:11:06.828Z,15.90
2023-09-24T00:13:35.933Z,14.10
2023-09-24T00:16:07.231Z,13.83
2023-09-24T00:18:35.664Z,14.93
2023-09-24T00:21:03.897Z,14.13
2023-09-24T00:23:33.091Z,13.70
2023-09-24T00:26:01.764Z,14.77
2023-09-24T00:28:29.886Z,13.90
2023-09-24T00:30:59.472Z,13.93
2023-09-24T00:33:29.048Z,14.03
2023-09-24T00:36:00.492Z,14.67
2023-09-24T00:38:28.445Z,15.93
2023-09-24T00:40:57.486Z,14.83
2023-09-24T00:43:29.754Z,15.87
2023-09-24T00:45:59.125Z,15.97
2023-09-24T00:48:30.221Z,15.97
2023-09-24T00:50:59.403Z,18.63
2023-09-24T00:53:28.634Z,14.60
2023-09-24T00:55:58.499Z,14.40
2023-09-24T00:58:28.338Z,14.87
2023-09-24T01:00:57.185Z,14.20
2023-09-24T01:03:25.505Z,15.87
2023-09-24T01:05:54.170Z,16.60
2023-09-24T01:08:23.459Z,13.07
2023-09-24T01:10:51.996Z,17.97
2023-09-24T01:13:21.538Z,14.50
2023-09-24T01:15:50.635Z,14.27
2023-09-24T01:18:19.067Z,15.47
2023-09-24T01:20:46.935Z,13.20
2023-09-24T01:23:16.967Z,14.13
2023-09-24T01:25:46.212Z,12.67
2023-09-24T01:28:15.262Z,12.13
2023-09-24T01:30:45.089Z,13.40
2023-09-24T01:33:12.999Z,12.87
2023-09-24T01:35:40.821Z,15.80
2023-09-24T01:38:09.093Z,13.40
2023-09-24T01:40:39.022Z,12.50
2023-09-24T01:43:08.830Z,12.20
2023-09-24T01:45:39.854Z,12.07
2023-09-24T01:48:07.970Z,12.57
2023-09-24T01:50:36.529Z,15.43
2023-09-24T01:53:04.291Z,12.27
2023-09-24T01:55:32.424Z,13.17
2023-09-24T01:58:01.867Z,14.43
2023-09-24T02:00:29.569Z,13.80
2023-09-24T02:03:00.679Z,14.27
2023-09-24T02:05:33.555Z,17.43
2023-09-24T02:08:01.409Z,11.50
2023-09-24T02:10:29.098Z,14.03
2023-09-24T02:12:57.111Z,16.37
2023-09-24T02:15:26.318Z,17.63
2023-09-24T02:17:54.404Z,20.93
2023-09-24T02:20:25.233Z,16.20
2023-09-24T02:22:57.812Z,18.43
2023-09-24T02:25:26.087Z,15.03
2023-09-24T02:27:53.819Z,19.07
2023-09-24T02:30:22.723Z,19.23
2023-09-24T02:32:52.128Z,13.90
2023-09-24T02:35:19.924Z,16.03
2023-09-24T02:37:49.648Z,16.27
2023-09-24T02:40:22.627Z,13.50
2023-09-24T02:42:52.683Z,19.37
2023-09-24T02:45:20.912Z,13.07
2023-09-24T02:47:50.781Z,12.97
2023-09-24T02:50:24.068Z,15.13
2023-09-24T02:52:53.394Z,14.20
2023-09-24T02:55:21.583Z,13.03
2023-09-24T02:57:51.530Z,14.07
2023-09-24T03:00:22.303Z,17.93
2023-09-24T03:02:51.018Z,15.70
2023-09-24T03:05:25.496Z,15.47
2023-09-24T03:07:56.901Z,15.67
2023-09-24T03:10:26.030Z,17.60
2023-09-24T03:12:53.818Z,18.67
2023-09-24T03:15:22.129Z,15.20
2023-09-24T03:17:49.894Z,13.27
2023-09-24T03:20:19.176Z,15.90
2023-09-24T03:22:50.334Z,17.67
2023-09-24T03:25:19.037Z,12.70
2023-09-24T03:27:47.033Z,16.53
2023-09-24T03:30:18.395Z,16.87
2023-09-24T03:32:46.669Z,14.37
2023-09-24T03:35:15.299Z,12.80
2023-09-24T03:37:45.062Z,16.37
2023-09-24T03:40:16.224Z,14.23
2023-09-24T03:42:44.349Z,14.53
2023-09-24T03:45:15.117Z,19.00
2023-09-24T03:47:43.398Z,16.80
2023-09-24T03:50:14.591Z,15.57
2023-09-24T03:52:42.501Z,15.63
2023-09-24T03:55:10.884Z,13.77
2023-09-24T03:57:40.443Z,16.57
2023-09-24T04:00:12.284Z,15.63
2023-09-24T04:02:41.520Z,16.63
2023-09-24T04:05:15.110Z,13.47
2023-09-24T04:07:43.339Z,16.00
2023-09-24T04:10:15.246Z,15.80
2023-09-24T04:12:47.464Z,14.67
2023-09-24T04:15:17.037Z,13.97
2023-09-24T04:17:44.782Z,15.27
2023-09-24T04:20:16.541Z,12.77
2023-09-24T04:22:45.972Z,12.03
2023-09-24T04:25:15.753Z,14.23
2023-09-24T04:27:45.359Z,12.77
2023-09-24T04:30:16.639Z,13.73
2023-09-24T04:32:44.754Z,13.37
2023-09-24T04:35:12.529Z,13.60
2023-09-24T04:37:40.533Z,16.13
2023-09-24T04:40:10.641Z,14.73
2023-09-24T04:42:38.530Z,14.13
2023-09-24T04:45:09.145Z,15.27
2023-09-24T04:47:36.982Z,15.30
2023-09-24T04:50:05.125Z,16.60
2023-09-24T04:52:33.036Z,14.80
2023-09-24T04:55:00.881Z,16.20
2023-09-24T04:57:28.525Z,17.57
2023-09-24T04:59:56.227Z,18.83
2023-09-24T05:02:25.366Z,15.00
2023-09-24T05:04:53.769Z,15.00
2023-09-24T05:07:20.813Z,16.30
2023-09-24T05:09:48.674Z,16.50
2023-09-24T05:12:16.337Z,15.33
2023-09-24T05:14:44.233Z,15.30
2023-09-24T05:17:12.006Z,15.77
2023-09-24T05:19:41.115Z,15.93
2023-09-24T05:22:09.871Z,14.73
2023-09-24T05:24:37.832Z,16.53
2023-09-24T05:27:05.644Z,16.73
2023-09-24T05:29:33.587Z,14.47
2023-09-24T05:32:03.308Z,14.57
2023-09-24T05:34:31.356Z,14.43
2023-09-24T05:37:00.623Z,16.07
2023-09-24T05:39:28.447Z,14.87
2023-09-24T05:41:56.834Z,13.70
2023-09-24T05:44:26.184Z,15.10
2023-09-24T05:46:53.876Z,16.70
2023-09-24T05:49:21.555Z,12.13
2023-09-24T05:51:49.227Z,15.57
2023-09-24T05:54:18.379Z,12.73
2023-09-24T05:56:46.087Z,16.17
2023-09-24T05:59:14.519Z,15.43
2023-09-24T06:01:43.309Z,14.20
2023-09-24T06:04:11.278Z,12.87
2023-09-24T06:06:39.188Z,12.97
2023-09-24T06:09:10.287Z,10.07
2023-09-24T06:11:40.762Z,8.57
2023-09-24T06:14:10.837Z,7.50
2023-09-24T06:16:40.864Z,6.27
2023-09-24T06:19:10.793Z,5.87
2023-09-24T06:21:38.982Z,5.80
2023-09-24T06:24:07.714Z,5.00
2023-09-24T06:26:36.360Z,4.72
2023-09-24T06:29:11.621Z,4.55
2023-09-24T06:31:39.979Z,4.93
2023-09-24T06:34:08.188Z,4.68
2023-09-24T06:36:36.069Z,5.25
2023-09-24T06:39:04.064Z,4.18
2023-09-24T06:41:31.868Z,5.00
2023-09-24T06:43:59.571Z,4.75
2023-09-24T06:46:28.618Z,4.18
2023-09-24T06:48:56.446Z,3.55
2023-09-24T06:51:24.292Z,3.85
2023-09-24T06:53:53.354Z,4.28
2023-09-24T06:56:21.248Z,3.85
2023-09-24T06:58:49.394Z,4.70
2023-09-24T07:01:17.154Z,5.25
2023-09-24T07:03:48.924Z,4.10
2023-09-24T07:06:17.493Z,5.18
2023-09-24T07:08:45.741Z,5.35
2023-09-24T07:11:32.553Z,4.75
2023-09-24T07:14:00.644Z,5.22
2023-09-24T07:16:29.493Z,4.57
2023-09-24T07:18:59.181Z,5.97
2023-09-24T07:21:34.279Z,5.27
2023-09-24T07:24:03.937Z,5.07
2023-09-24T07:26:32.156Z,4.30
2023-09-24T07:29:01.259Z,4.33
2023-09-24T07:31:31.145Z,4.47
2023-09-24T07:34:03.444Z,7.70
2023-09-24T07:36:38.161Z,5.50
2023-09-24T07:39:13.045Z,5.27
2023-09-24T07:41:41.017Z,4.10
2023-09-24T07:44:08.796Z,4.70
2023-09-24T07:46:36.676Z,4.30
2023-09-24T07:49:07.559Z,4.60
2023-09-24T07:51:35.558Z,3.30
2023-09-24T07:54:03.346Z,3.15
2023-09-24T07:56:31.566Z,3.90
2023-09-24T07:58:59.942Z,2.97
2023-09-24T08:01:28.318Z,3.55
2023-09-24T08:03:56.301Z,6.38
2023-09-24T08:06:25.711Z,3.28
2023-09-24T08:09:02.663Z,3.08
2023-09-24T08:11:41.182Z,3.50
2023-09-24T08:14:08.925Z,2.22
2023-09-24T08:16:36.931Z,3.67
2023-09-24T08:19:04.658Z,2.92
2023-09-24T08:21:33.795Z,4.72
2023-09-24T08:24:01.579Z,3.42
2023-09-24T08:26:29.360Z,3.00
2023-09-24T08:28:57.062Z,4.07
2023-09-24T08:31:27.017Z,6.72
2023-09-24T08:33:55.021Z,3.97
2023-09-24T08:36:25.211Z,4.80
2023-09-24T08:38:54.554Z,4.40
2023-09-24T08:41:22.288Z,4.15
2023-09-24T08:43:51.103Z,2.60
2023-09-24T08:46:20.548Z,3.28
2023-09-24T08:48:49.186Z,4.32
2023-09-24T08:51:19.226Z,4.95
2023-09-24T08:53:47.199Z,4.28
2023-09-24T08:56:17.833Z,3.88
2023-09-24T08:58:45.761Z,4.18
2023-09-24T09:01:13.714Z,4.25
2023-09-24T09:03:42.512Z,3.42
2023-09-24T09:06:10.683Z,3.97
2023-09-24T09:08:52.078Z,3.58
2023-09-24T09:11:22.244Z,4.05
2023-09-24T09:13:51.099Z,4.07
2023-09-24T09:16:21.959Z,5.53
2023-09-24T09:19:01.912Z,5.70
2023-09-24T09:21:30.652Z,5.05
2023-09-24T09:23:58.357Z,7.70
2023-09-24T09:26:35.363Z,6.03
2023-09-24T09:29:06.550Z,6.82
2023-09-24T09:31:49.054Z,4.93
2023-09-24T09:34:16.854Z,7.22
2023-09-24T09:36:45.037Z,6.32
2023-09-24T09:39:12.979Z,6.45
2023-09-24T09:41:43.938Z,9.30
2023-09-24T09:44:15.675Z,7.88
2023-09-24T09:46:46.955Z,7.43
2023-09-24T09:49:18.951Z,6.63
2023-09-24T09:51:48.215Z,8.45
2023-09-24T09:54:17.243Z,6.30
2023-09-24T09:56:46.445Z,6.60
2023-09-24T09:59:16.437Z,7.00
2023-09-24T10:01:44.355Z,6.33
2023-09-24T10:04:12.388Z,7.07
2023-09-24T10:06:41.501Z,6.47
2023-09-24T10:09:35.873Z,8.37
2023-09-24T10:12:08.576Z,7.50
2023-09-24T10:14:38.187Z,7.67
2023-09-24T10:17:25.717Z,7.93
2023-09-24T10:19:58.259Z,7.67
2023-09-24T10:22:28.908Z,6.77
2023-09-24T10:24:57.051Z,7.83
2023-09-24T10:27:31.736Z,5.83
2023-09-24T10:30:12.183Z,9.03
2023-09-24T10:32:53.127Z,6.20
2023-09-24T10:35:21.777Z,6.37
2023-09-24T10:38:02.839Z,4.97
2023-09-24T10:40:31.074Z,6.67
2023-09-24T10:43:23.010Z,5.33
2023-09-24T10:45:51.075Z,7.30
2023-09-24T10:48:23.191Z,7.82
2023-09-24T10:50:57.393Z,6.03
2023-09-24T10:53:25.097Z,5.37
2023-09-24T10:56:05.558Z,5.67
2023-09-24T10:58:40.212Z,4.93
2023-09-24T11:01:07.973Z,4.57
2023-09-24T11:03:37.115Z,5.82
2023-09-24T11:06:05.590Z,6.63
2023-09-24T11:08:33.305Z,6.28
2023-09-24T11:11:01.038Z,5.85
2023-09-24T11:13:28.732Z,6.40
2023-09-24T11:15:58.102Z,5.93
2023-09-24T11:18:27.441Z,7.33
2023-09-24T11:20:55.430Z,7.13
2023-09-24T11:23:23.427Z,6.73
2023-09-24T11:25:52.953Z,8.02
2023-09-24T11:28:30.487Z,7.27
2023-09-24T11:30:59.627Z,7.03
2023-09-24T11:33:27.403Z,8.50
2023-09-24T11:35:57.362Z,5.63
2023-09-24T11:38:29.697Z,8.27
2023-09-24T11:41:07.792Z,6.20
2023-09-24T11:43:36.465Z,6.97
2023-09-24T11:46:16.569Z,5.13
2023-09-24T11:48:45.725Z,6.25
2023-09-24T11:51:13.672Z,5.10
2023-09-24T11:53:42.172Z,5.10
2023-09-24T11:56:09.883Z,7.40
2023-09-24T11:58:39.009Z,6.22
2023-09-24T12:01:10.662Z,5.15
2023-09-24T12:03:38.891Z,4.70
2023-09-24T12:06:07.635Z,4.90
2023-09-24T12:08:35.527Z,6.18
2023-09-24T12:11:03.320Z,5.55
2023-09-24T12:13:32.646Z,5.78
2023-09-24T12:16:00.405Z,4.60
2023-09-24T12:18:29.641Z,4.65
2023-09-24T12:20:58.374Z,4.53
2023-09-24T12:23:26.899Z,4.38
2023-09-24T12:25:55.001Z,5.57
2023-09-24T12:28:22.686Z,4.18
2023-09-24T12:30:50.426Z,7.35
2023-09-24T12:33:18.243Z,4.47
2023-09-24T12:35:47.351Z,4.07
2023-09-24T12:38:15.136Z,4.10
2023-09-24T12:40:43.020Z,3.95
2023-09-24T12:43:10.812Z,3.63
2023-09-24T12:45:38.543Z,3.67
2023-09-24T12:48:09.307Z,3.97
2023-09-24T12:50:37.365Z,4.40
2023-09-24T12:53:06.652Z,4.28
2023-09-24T12:55:34.356Z,5.85
2023-09-24T12:58:02.038Z,4.07
2023-09-24T13:00:29.887Z,3.85
2023-09-24T13:02:57.694Z,4.47
2023-09-24T13:05:26.119Z,3.58
2023-09-24T13:07:54.112Z,4.35
2023-09-24T13:10:23.974Z,3.33
2023-09-24T13:12:51.635Z,3.80
2023-09-24T13:15:19.452Z,3.83
2023-09-24T13:17:47.182Z,4.32
2023-09-24T13:20:15.592Z,3.38
2023-09-24T13:22:43.382Z,4.70
2023-09-24T13:25:13.744Z,4.03
2023-09-24T13:27:43.944Z,6.00
2023-09-24T13:30:12.204Z,3.58
2023-09-24T13:32:40.865Z,4.50
2023-09-24T13:35:09.931Z,5.38
2023-09-24T13:37:38.935Z,3.08
2023-09-24T13:40:13.958Z,3.42
2023-09-24T13:42:48.989Z,5.75
2023-09-24T13:45:16.980Z,4.60
2023-09-24T13:47:44.835Z,4.30
2023-09-24T13:50:12.700Z,3.63
2023-09-24T13:52:40.470Z,3.50
2023-09-24T13:55:09.567Z,4.78
2023-09-24T13:57:37.990Z,5.82
2023-09-24T14:00:09.377Z,4.88
2023-09-24T14:02:37.167Z,3.38
2023-09-24T14:05:06.059Z,3.13
2023-09-24T14:07:33.740Z,3.35
2023-09-24T14:10:19.082Z,3.33
2023-09-24T14:12:46.927Z,3.90
2023-09-24T14:15:16.394Z,4.13
2023-09-24T14:17:48.215Z,3.25
2023-09-24T14:20:20.645Z,3.90
2023-09-24T14:22:48.586Z,3.42
2023-09-24T14:25:16.429Z,2.95
2023-09-24T14:27:44.812Z,3.70
2023-09-24T14:30:13.780Z,3.78
2023-09-24T14:32:42.879Z,4.03
2023-09-24T14:35:10.842Z,3.75
2023-09-24T14:37:38.641Z,3.10
2023-09-24T14:40:07.613Z,3.35
2023-09-24T14:42:35.502Z,4.03
2023-09-24T14:45:03.256Z,3.25
2023-09-24T14:47:31.855Z,2.80
2023-09-24T14:50:01.526Z,3.17
2023-09-24T14:52:30.742Z,2.60
2023-09-24T14:54:59.606Z,5.20
2023-09-24T14:57:27.315Z,3.10
2023-09-24T14:59:55.063Z,3.40
2023-09-24T15:02:22.833Z,5.68
2023-09-24T15:04:52.035Z,7.50
2023-09-24T15:07:21.124Z,2.75
2023-09-24T15:09:48.744Z,4.22
2023-09-24T15:12:16.639Z,2.45
2023-09-24T15:14:44.614Z,4.65
2023-09-24T15:17:12.388Z,3.63
2023-09-24T15:19:40.066Z,4.43
2023-09-24T15:22:07.764Z,3.65
2023-09-24T15:24:36.784Z,4.35
2023-09-24T15:27:04.665Z,3.83
2023-09-24T15:29:32.581Z,3.53
2023-09-24T15:32:00.286Z,2.88
2023-09-24T15:34:30.677Z,5.40
2023-09-24T15:36:58.413Z,2.40
2023-09-24T15:39:26.154Z,3.20
2023-09-24T15:41:55.258Z,2.38
2023-09-24T15:44:22.950Z,2.40
2023-09-24T15:46:50.657Z,4.30
2023-09-24T15:49:18.404Z,2.40
2023-09-24T15:51:46.108Z,3.40
2023-09-24T15:54:13.948Z,2.95
2023-09-24T15:56:41.657Z,2.53
2023-09-24T15:59:10.673Z,2.75
2023-09-24T16:01:38.709Z,3.28
2023-09-24T16:04:06.511Z,2.42
2023-09-24T16:06:34.239Z,2.60
2023-09-24T16:09:01.995Z,2.30
2023-09-24T16:11:29.702Z,3.45
2023-09-24T16:13:57.374Z,2.75
2023-09-24T16:16:27.164Z,2.65
2023-09-24T16:18:55.105Z,3.55
2023-09-24T16:21:22.878Z,2.80
2023-09-24T16:23:51.161Z,3.10
2023-09-24T16:26:20.293Z,2.70
2023-09-24T16:28:47.958Z,2.53
2023-09-24T16:31:15.708Z,3.85
2023-09-24T16:33:44.790Z,2.55
2023-09-24T16:36:14.112Z,2.58
2023-09-24T16:38:41.918Z,3.55
2023-09-24T16:41:10.115Z,2.67
2023-09-24T16:43:37.790Z,4.20
2023-09-24T16:46:05.487Z,4.18
2023-09-24T16:48:33.393Z,3.15
2023-09-24T16:51:04.449Z,3.00
2023-09-24T16:53:32.637Z,2.97
2023-09-24T16:56:00.423Z,2.65
2023-09-24T16:58:28.091Z,3.10
2023-09-24T17:00:55.778Z,2.85
2023-09-24T17:03:23.675Z,2.75
2023-09-24T17:05:51.503Z,2.70
2023-09-24T17:08:20.537Z,3.78
2023-09-24T17:10:49.502Z,5.35
2023-09-24T17:13:17.254Z,3.50
2023-09-24T17:15:47.149Z,2.72
2023-09-24T17:18:15.106Z,3.10
2023-09-24T17:20:48.344Z,3.03
2023-09-24T17:23:16.407Z,3.80
2023-09-24T17:25:45.480Z,4.72
2023-09-24T17:28:13.207Z,3.50
2023-09-24T17:30:40.903Z,4.80
2023-09-24T17:33:08.650Z,3.15
2023-09-24T17:35:36.704Z,3.40
2023-09-24T17:38:04.687Z,3.20
2023-09-24T17:40:32.397Z,3.55
2023-09-24T17:43:01.477Z,3.50
2023-09-24T17:45:30.569Z,4.00
2023-09-24T17:47:58.416Z,3.38
2023-09-24T17:50:26.146Z,3.50
2023-09-24T17:52:53.810Z,4.15
2023-09-24T17:55:21.506Z,4.67
2023-09-24T17:57:49.699Z,3.77
2023-09-24T18:00:19.491Z,3.50
2023-09-24T18:02:47.286Z,3.45
2023-09-24T18:05:16.310Z,3.33
2023-09-24T18:07:43.969Z,4.50
2023-09-24T18:10:11.906Z,3.80
2023-09-24T18:12:39.576Z,3.43
2023-09-24T18:15:08.879Z,3.27
2023-09-24T18:17:37.951Z,3.80
2023-09-24T18:20:06.559Z,3.77
2023-09-24T18:22:34.200Z,3.40
2023-09-24T18:25:01.876Z,5.13
2023-09-24T18:27:34.227Z,3.60
2023-09-24T18:30:02.339Z,3.73
2023-09-24T18:32:30.171Z,4.03
2023-09-24T18:34:59.267Z,5.10
2023-09-24T18:37:27.281Z,3.70
2023-09-24T18:39:55.622Z,3.67
2023-09-24T18:42:24.025Z,3.77
2023-09-24T18:44:53.037Z,4.70
2023-09-24T18:47:21.943Z,4.07
2023-09-24T18:49:49.606Z,3.70
2023-09-24T18:52:18.618Z,4.33
2023-09-24T18:54:46.324Z,3.97
2023-09-24T18:57:14.862Z,3.40
2023-09-24T18:59:42.614Z,4.07
2023-09-24T19:02:10.295Z,4.93
2023-09-24T19:04:38.210Z,3.50
2023-09-24T19:07:07.663Z,4.30
2023-09-24T19:09:36.814Z,4.23
2023-09-24T19:12:04.765Z,4.87
2023-09-24T19:14:32.544Z,4.13
2023-09-24T19:17:00.217Z,5.30
2023-09-24T19:19:27.943Z,4.27
2023-09-24T19:21:55.858Z,3.93
2023-09-24T19:24:23.781Z,4.20
2023-09-24T19:26:55.269Z,5.13
2023-09-24T19:29:23.384Z,4.23
2023-09-24T19:31:52.313Z,4.27
2023-09-24T19:34:20.111Z,3.70
2023-09-24T19:36:47.778Z,3.77
2023-09-24T19:39:15.623Z,3.70
2023-09-24T19:41:43.559Z,4.07
2023-09-24T19:44:12.693Z,3.97
2023-09-24T19:46:40.743Z,4.00
2023-09-24T19:49:08.736Z,6.00
2023-09-24T19:51:36.545Z,5.03
2023-09-24T19:54:04.283Z,4.10
2023-09-24T19:56:32.007Z,4.03
2023-09-24T19:59:01.161Z,4.40
2023-09-24T20:01:30.277Z,4.63
2023-09-24T20:04:00.083Z,4.00
2023-09-24T20:06:28.056Z,3.87
2023-09-24T20:08:59.641Z,3.70
2023-09-24T20:11:27.504Z,4.93
2023-09-24T20:13:57.535Z,3.67
2023-09-24T20:16:25.284Z,4.00
2023-09-24T20:18:54.447Z,3.77
2023-09-24T20:21:22.199Z,5.03
2023-09-24T20:23:49.934Z,4.23
2023-09-24T20:26:17.784Z,3.87
2023-09-24T20:28:53.304Z,5.20
2023-09-24T20:31:22.273Z,4.57
2023-09-24T20:34:00.505Z,4.27
2023-09-24T20:36:31.956Z,3.87
2023-09-24T20:39:04.471Z,4.07
2023-09-24T20:41:33.234Z,3.80
2023-09-24T20:44:00.937Z,4.83
2023-09-24T20:46:34.130Z,3.83
2023-09-24T20:49:02.137Z,3.63
2023-09-24T20:51:31.240Z,5.13
2023-09-24T20:53:59.145Z,3.73
2023-09-24T20:56:27.025Z,4.77
2023-09-24T20:58:58.054Z,4.37
2023-09-24T21:01:26.396Z,3.43
2023-09-24T21:03:54.187Z,4.57
2023-09-24T21:06:21.977Z,2.83
2023-09-24T21:08:51.300Z,3.37
2023-09-24T21:11:19.187Z,3.50
2023-09-24T21:13:47.089Z,4.73
2023-09-24T21:16:14.881Z,3.63
2023-09-24T21:18:42.666Z,3.63
2023-09-24T21:21:10.613Z,3.40
2023-09-24T21:23:39.060Z,3.73
2023-09-24T21:26:08.496Z,5.50
2023-09-24T21:28:36.312Z,3.50
2023-09-24T21:31:05.404Z,3.60
2023-09-24T21:33:33.563Z,3.67
2023-09-24T21:36:01.729Z,4.80
2023-09-24T21:38:29.420Z,3.13
2023-09-24T21:40:58.274Z,3.90
2023-09-24T21:43:31.502Z,4.07
2023-09-24T21:46:00.589Z,3.57
2023-09-24T21:48:28.404Z,4.03
2023-09-24T21:50:56.656Z,4.80
2023-09-24T21:53:24.437Z,3.50
2023-09-24T21:55:52.440Z,3.70
2023-09-24T21:58:20.562Z,3.30
2023-09-24T22:00:49.585Z,3.63
2023-09-24T22:03:18.863Z,4.33
2023-09-24T22:05:47.115Z,3.73
2023-09-24T22:08:14.909Z,3.50
2023-09-24T22:10:42.602Z,4.63
2023-09-24T22:13:10.285Z,3.60
2023-09-24T22:15:38.014Z,3.40
2023-09-24T22:18:07.506Z,4.77
2023-09-24T22:20:35.257Z,3.47
2023-09-24T22:23:03.092Z,4.27
2023-09-24T22:25:31.834Z,3.30
2023-09-24T22:27:59.607Z,3.70
2023-09-24T22:30:27.606Z,3.67
2023-09-24T22:32:55.451Z,5.33
2023-09-24T22:35:24.918Z,3.77
2023-09-24T22:37:52.612Z,3.27
2023-09-24T22:40:20.402Z,3.97
2023-09-24T22:42:48.069Z,4.60
2023-09-24T22:45:18.760Z,4.00
2023-09-24T22:47:46.961Z,6.13
2023-09-24T22:50:15.634Z,4.00
2023-09-24T22:52:47.273Z,3.23
2023-09-24T22:55:17.219Z,3.63
2023-09-24T22:57:45.680Z,5.57
2023-09-24T23:00:17.390Z,3.10
2023-09-24T23:02:45.355Z,3.40
2023-09-24T23:05:14.498Z,3.40
2023-09-24T23:07:42.685Z,4.50
2023-09-24T23:10:12.572Z,3.23
2023-09-24T23:12:40.473Z,2.77
2023-09-24T23:15:09.328Z,3.80
2023-09-24T23:17:37.029Z,4.37
2023-09-24T23:20:05.559Z,3.70
2023-09-24T23:22:33.324Z,2.97
2023-09-24T23:25:00.993Z,3.17
2023-09-24T23:27:31.158Z,2.70
2023-09-24T23:29:59.194Z,3.87
2023-09-24T23:32:29.857Z,2.90
2023-09-24T23:34:57.634Z,5.80
2023-09-24T23:37:25.290Z,2.70
2023-09-24T23:39:53.151Z,2.87
2023-09-24T23:42:21.437Z,3.00
2023-09-24T23:44:50.500Z,2.73
2023-09-24T23:47:18.452Z,3.13
2023-09-24T23:49:46.291Z,2.90
2023-09-24T23:52:14.042Z,2.53
2023-09-24T23:54:41.788Z,4.23
2023-09-24T23:57:09.524Z,4.40
2023-09-24T23:59:37.225Z,3.23
